sensor_id;sensor_type;location;lat;lon;timestamp;pressure;altitude;pressure_sealevel;temperature;humidity
22930;BME280;11630;42.660;23.292;2023-04-03T00:01:44;68563.80;;;9.32;96.23
22930;BME280;11630;42.660;23.292;2023-04-03T00:04:16;68555.91;;;9.26;96.28
22930;BME280;11630;42.660;23.292;2023-04-03T00:06:48;68556.72;;;9.23;96.85
22930;BME280;11630;42.660;23.292;2023-04-03T00:09:19;68563.77;;;9.30;97.13
22930;BME280;11630;42.660;23.292;2023-04-03T00:11:49;68542.88;;;9.15;97.55
22930;BME280;11630;42.660;23.292;2023-04-03T00:14:20;68544.23;;;9.15;97.99
22930;BME280;11630;42.660;23.292;2023-04-03T00:16:51;68535.55;;;9.12;97.68
22930;BME280;11630;42.660;23.292;2023-04-03T00:19:22;68539.08;;;9.11;98.08
22930;BME280;11630;42.660;23.292;2023-04-03T00:21:53;68548.56;;;9.16;97.73
22930;BME280;11630;42.660;23.292;2023-04-03T00:24:25;68538.52;;;9.11;98.15
22930;BME280;11630;42.660;23.292;2023-04-03T00:26:55;68531.73;;;9.06;98.40
22930;BME280;11630;42.660;23.292;2023-04-03T00:29:26;68531.47;;;9.04;97.82
22930;BME280;11630;42.660;23.292;2023-04-03T00:31:57;68519.53;;;8.96;98.33
22930;BME280;11630;42.660;23.292;2023-04-03T00:34:27;68518.71;;;8.94;98.90
22930;BME280;11630;42.660;23.292;2023-04-03T00:36:58;68527.41;;;9.02;98.88
22930;BME280;11630;42.660;23.292;2023-04-03T00:39:28;68527.66;;;8.98;99.15
22930;BME280;11630;42.660;23.292;2023-04-03T00:41:59;68511.91;;;8.84;99.29
22930;BME280;11630;42.660;23.292;2023-04-03T00:47:13;68504.83;;;8.75;100.00
22930;BME280;11630;42.660;23.292;2023-04-03T00:49:44;68504.86;;;8.80;99.86
22930;BME280;11630;42.660;23.292;2023-04-03T00:52:16;68510.80;;;8.80;99.86
22930;BME280;11630;42.660;23.292;2023-04-03T00:54:50;68516.53;;;8.92;99.64
22930;BME280;11630;42.660;23.292;2023-04-03T00:57:20;68504.83;;;8.75;99.82
22930;BME280;11630;42.660;23.292;2023-04-03T00:59:55;68507.83;;;8.79;99.52
22930;BME280;11630;42.660;23.292;2023-04-03T01:02:25;68492.38;;;8.71;99.55
22930;BME280;11630;42.660;23.292;2023-04-03T01:04:57;68482.32;;;8.58;100.00
22930;BME280;11630;42.660;23.292;2023-04-03T01:07:33;68483.41;;;8.61;100.00
22930;BME280;11630;42.660;23.292;2023-04-03T01:10:09;68492.08;;;8.67;100.00
22930;BME280;11630;42.660;23.292;2023-04-03T01:12:41;68493.17;;;8.68;100.00
22930;BME280;11630;42.660;23.292;2023-04-03T01:15:19;68482.59;;;8.59;100.00
22930;BME280;11630;42.660;23.292;2023-04-03T01:17:57;68480.68;;;8.59;100.00
22930;BME280;11630;42.660;23.292;2023-04-03T01:20:50;68476.61;;;8.54;100.00
22930;BME280;11630;42.660;23.292;2023-04-03T01:26:07;68478.78;;;8.51;100.00
22930;BME280;11630;42.660;23.292;2023-04-03T01:28:37;68464.94;;;8.42;100.00
22930;BME280;11630;42.660;23.292;2023-04-03T01:31:28;68452.73;;;8.35;100.00
22930;BME280;11630;42.660;23.292;2023-04-03T01:33:59;68462.25;;;8.44;100.00
22930;BME280;11630;42.660;23.292;2023-04-03T01:36:31;68467.39;;;8.45;100.00
22930;BME280;11630;42.660;23.292;2023-04-03T01:39:03;68469.58;;;8.52;100.00
22930;BME280;11630;42.660;23.292;2023-04-03T01:41:34;68469.84;;;8.51;100.00
22930;BME280;11630;42.660;23.292;2023-04-03T01:44:05;68481.23;;;8.57;100.00
22930;BME280;11630;42.660;23.292;2023-04-03T01:46:36;68471.72;;;8.47;100.00
22930;BME280;11630;42.660;23.292;2023-04-03T01:49:07;68471.72;;;8.47;100.00
22930;BME280;11630;42.660;23.292;2023-04-03T01:51:38;68473.38;;;8.56;100.00
22930;BME280;11630;42.660;23.292;2023-04-03T01:54:09;68488.27;;;8.58;100.00
22930;BME280;11630;42.660;23.292;2023-04-03T01:56:40;68494.52;;;8.68;100.00
22930;BME280;11630;42.660;23.292;2023-04-03T01:59:10;68497.52;;;8.72;100.00
22930;BME280;11630;42.660;23.292;2023-04-03T02:01:42;68491.28;;;8.70;100.00
22930;BME280;11630;42.660;23.292;2023-04-03T02:04:12;68501.86;;;8.76;100.00
22930;BME280;11630;42.660;23.292;2023-04-03T02:06:43;68503.21;;;8.76;100.00
22930;BME280;11630;42.660;23.292;2023-04-03T02:09:14;68508.36;;;8.79;100.00
22930;BME280;11630;42.660;23.292;2023-04-03T02:11:47;68510.53;;;8.79;100.00
22930;BME280;11630;42.660;23.292;2023-04-03T02:14:19;68513.55;;;8.88;100.00
22930;BME280;11630;42.660;23.292;2023-04-03T02:16:50;68499.41;;;8.75;100.00
22930;BME280;11630;42.660;23.292;2023-04-03T02:19:22;68488.30;;;8.66;100.00
22930;BME280;11630;42.660;23.292;2023-04-03T02:21:53;68510.02;;;8.86;100.00
22930;BME280;11630;42.660;23.292;2023-04-03T02:24:24;68461.41;;;8.40;100.00
22930;BME280;11630;42.660;23.292;2023-04-03T02:26:55;68451.91;;;8.30;100.00
22930;BME280;11630;42.660;23.292;2023-04-03T02:29:25;68453.81;;;8.33;100.00
22930;BME280;11630;42.660;23.292;2023-04-03T02:31:56;68452.16;;;8.27;100.00
22930;BME280;11630;42.660;23.292;2023-04-03T02:34:26;68447.84;;;8.30;100.00
22930;BME280;11630;42.660;23.292;2023-04-03T02:36:57;68448.92;;;8.26;100.00
22930;BME280;11630;42.660;23.292;2023-04-03T02:39:28;68429.63;;;8.07;100.00
22930;BME280;11630;42.660;23.292;2023-04-03T02:41:58;68410.39;;;7.96;100.00
22930;BME280;11630;42.660;23.292;2023-04-03T02:44:29;68393.83;;;7.79;100.00
22930;BME280;11630;42.660;23.292;2023-04-03T02:47:00;68400.05;;;7.81;100.00
22930;BME280;11630;42.660;23.292;2023-04-03T02:49:31;68355.86;;;7.45;100.00
22930;BME280;11630;42.660;23.292;2023-04-03T02:52:02;68368.33;;;7.54;100.00
22930;BME280;11630;42.660;23.292;2023-04-03T02:54:33;68387.04;;;7.69;100.00
22930;BME280;11630;42.660;23.292;2023-04-03T02:57:04;68401.67;;;7.83;100.00
22930;BME280;11630;42.660;23.292;2023-04-03T02:59:35;68400.05;;;7.81;100.00
22930;BME280;11630;42.660;23.292;2023-04-03T03:02:06;68408.73;;;7.89;100.00
22930;BME280;11630;42.660;23.292;2023-04-03T03:04:37;68397.08;;;7.80;100.00
22930;BME280;11630;42.660;23.292;2023-04-03T03:07:08;68407.38;;;7.89;100.00
22930;BME280;11630;42.660;23.292;2023-04-03T03:09:39;68408.47;;;7.90;100.00
22930;BME280;11630;42.660;23.292;2023-04-03T03:12:10;68401.69;;;7.85;100.00
22930;BME280;11630;42.660;23.292;2023-04-03T03:14:41;68398.70;;;7.84;100.00
22930;BME280;11630;42.660;23.292;2023-04-03T03:17:12;68387.84;;;7.71;100.00
22930;BME280;11630;42.660;23.292;2023-04-03T03:19:46;68397.61;;;7.80;100.00
22930;BME280;11630;42.660;23.292;2023-04-03T03:22:18;68409.02;;;7.93;100.00
22930;BME280;11630;42.660;23.292;2023-04-03T03:24:49;68382.69;;;7.65;100.00
22930;BME280;11630;42.660;23.292;2023-04-03T03:27:19;68370.22;;;7.57;100.00
22930;BME280;11630;42.660;23.292;2023-04-03T03:29:50;68334.43;;;7.24;100.00
22930;BME280;11630;42.660;23.292;2023-04-03T03:32:21;68359.38;;;7.47;100.00
22930;BME280;11630;42.660;23.292;2023-04-03T03:34:52;68373.47;;;7.57;100.00
22930;BME280;11630;42.660;23.292;2023-04-03T03:37:23;68366.69;;;7.52;100.00
22930;BME280;11630;42.660;23.292;2023-04-03T03:39:53;68363.75;;;7.56;100.00
22930;BME280;11630;42.660;23.292;2023-04-03T03:42:24;68340.15;;;7.33;100.00
22930;BME280;11630;42.660;23.292;2023-04-03T03:44:55;68337.95;;;7.26;100.00
22930;BME280;11630;42.660;23.292;2023-04-03T03:47:26;68334.43;;;7.24;100.00
22930;BME280;11630;42.660;23.292;2023-04-03T03:49:57;68344.73;;;7.36;100.00
22930;BME280;11630;42.660;23.292;2023-04-03T03:52:28;68357.77;;;7.48;100.00
22930;BME280;11630;42.660;23.292;2023-04-03T03:54:59;68367.23;;;7.53;100.00
22930;BME280;11630;42.660;23.292;2023-04-03T03:57:30;68376.18;;;7.60;100.00
22930;BME280;11630;42.660;23.292;2023-04-03T04:00:01;68353.41;;;7.39;100.00
22930;BME280;11630;42.660;23.292;2023-04-03T04:02:32;68300.80;;;6.90;100.00
22930;BME280;11630;42.660;23.292;2023-04-03T04:05:03;68289.42;;;6.80;100.00
22930;BME280;11630;42.660;23.292;2023-04-03T04:07:34;68314.06;;;6.99;100.00
22930;BME280;11630;42.660;23.292;2023-04-03T04:10:06;68333.61;;;7.22;100.00
22930;BME280;11630;42.660;23.292;2023-04-03T04:12:37;68348.01;;;7.41;100.00
22930;BME280;11630;42.660;23.292;2023-04-03T04:15:10;68331.99;;;7.23;100.00
22930;BME280;11630;42.660;23.292;2023-04-03T04:17:41;68337.92;;;7.23;100.00
22930;BME280;11630;42.660;23.292;2023-04-03T04:20:12;68303.51;;;6.93;100.00
22930;BME280;11630;42.660;23.292;2023-04-03T04:22:43;68339.84;;;7.26;100.00
22930;BME280;11630;42.660;23.292;2023-04-03T04:25:14;68332.52;;;7.21;100.00
22930;BME280;11630;42.660;23.292;2023-04-03T04:27:45;68300.79;;;6.88;100.00
22930;BME280;11630;42.660;23.292;2023-04-03T04:30:17;68315.98;;;7.04;100.00
22930;BME280;11630;42.660;23.292;2023-04-03T04:32:48;68324.92;;;7.14;100.00
22930;BME280;11630;42.660;23.292;2023-04-03T04:35:18;68343.65;;;7.35;100.00
22930;BME280;11630;42.660;23.292;2023-04-03T04:37:49;68334.42;;;7.21;100.00
22930;BME280;11630;42.660;23.292;2023-04-03T04:40:19;68348.52;;;7.34;100.00
22930;BME280;11630;42.660;23.292;2023-04-03T04:42:50;68324.10;;;7.12;100.00
22930;BME280;11630;42.660;23.292;2023-04-03T04:45:21;68329.54;;;7.17;100.00
22930;BME280;11630;42.660;23.292;2023-04-03T04:47:54;68334.95;;;7.22;100.00
22930;BME280;11630;42.660;23.292;2023-04-03T04:50:24;68340.67;;;7.31;100.00
22930;BME280;11630;42.660;23.292;2023-04-03T04:52:55;68377.80;;;7.61;100.00
22930;BME280;11630;42.660;23.292;2023-04-03T04:55:26;68382.70;;;7.68;100.00
22930;BME280;11630;42.660;23.292;2023-04-03T04:57:56;68391.11;;;7.74;100.00
22930;BME280;11630;42.660;23.292;2023-04-03T05:00:27;68404.38;;;7.85;100.00
22930;BME280;11630;42.660;23.292;2023-04-03T05:02:57;68371.56;;;7.57;100.00
22930;BME280;11630;42.660;23.292;2023-04-03T05:05:27;68376.18;;;7.60;100.00
22930;BME280;11630;42.660;23.292;2023-04-03T05:07:58;68396.27;;;7.80;100.00
22930;BME280;11630;42.660;23.292;2023-04-03T05:10:29;68429.35;;;8.08;100.00
22930;BME280;11630;42.660;23.292;2023-04-03T05:13:01;68427.45;;;8.05;100.00
22930;BME280;11630;42.660;23.292;2023-04-03T05:15:32;68443.52;;;8.26;100.00
22930;BME280;11630;42.660;23.292;2023-04-03T05:18:03;68461.41;;;8.38;100.00
22930;BME280;11630;42.660;23.292;2023-04-03T05:20:35;68471.45;;;8.48;100.00
22930;BME280;11630;42.660;23.292;2023-04-03T05:23:08;68492.89;;;8.66;100.00
22930;BME280;11630;42.660;23.292;2023-04-03T05:25:39;68510.27;;;8.80;100.00
22930;BME280;11630;42.660;23.292;2023-04-03T05:28:09;68536.06;;;9.05;100.00
22930;BME280;11630;42.660;23.292;2023-04-03T05:30:40;68517.06;;;8.90;100.00
22930;BME280;11630;42.660;23.292;2023-04-03T05:33:12;68533.63;;;9.04;100.00
22930;BME280;11630;42.660;23.292;2023-04-03T05:35:43;68538.25;;;9.09;100.00
22930;BME280;11630;42.660;23.292;2023-04-03T05:38:14;68517.06;;;8.90;100.00
22930;BME280;11630;42.660;23.292;2023-04-03T05:40:44;68518.71;;;8.94;100.00
22930;BME280;11630;42.660;23.292;2023-04-03T05:43:15;68524.14;;;9.01;100.00
22930;BME280;11630;42.660;23.292;2023-04-03T05:45:47;68519.50;;;8.91;100.00
22930;BME280;11630;42.660;23.292;2023-04-03T05:48:21;68496.17;;;8.72;100.00
22930;BME280;11630;42.660;23.292;2023-04-03T05:50:52;68516.26;;;8.88;100.00
22930;BME280;11630;42.660;23.292;2023-04-03T05:53:27;68517.09;;;8.95;100.00
22930;BME280;11630;42.660;23.292;2023-04-03T05:55:59;68544.50;;;9.16;100.00
22930;BME280;11630;42.660;23.292;2023-04-03T05:58:30;68560.27;;;9.30;100.00
22930;BME280;11630;42.660;23.292;2023-04-03T06:01:03;68549.12;;;9.17;100.00
22930;BME280;11630;42.660;23.292;2023-04-03T06:03:35;68556.17;;;9.25;100.00
22930;BME280;11630;42.660;23.292;2023-04-03T06:06:06;68544.49;;;9.14;100.00
22930;BME280;11630;42.660;23.292;2023-04-03T06:08:37;68538.55;;;9.13;100.00
22930;BME280;11630;42.660;23.292;2023-04-03T06:11:08;68527.94;;;9.00;100.00
22930;BME280;11630;42.660;23.292;2023-04-03T06:13:39;68520.59;;;8.92;100.00
22930;BME280;11630;42.660;23.292;2023-04-03T06:16:16;68516.80;;;8.91;100.00
22930;BME280;11630;42.660;23.292;2023-04-03T06:18:42;68512.73;;;8.86;100.00
22930;BME280;11630;42.660;23.292;2023-04-03T06:21:13;68508.66;;;8.86;100.00
22930;BME280;11630;42.660;23.292;2023-04-03T06:23:44;68541.78;;;9.14;100.00
22930;BME280;11630;42.660;23.292;2023-04-03T06:26:15;68568.14;;;9.39;100.00
22930;BME280;11630;42.660;23.292;2023-04-03T06:28:47;68579.02;;;9.49;100.00
22930;BME280;11630;42.660;23.292;2023-04-03T06:31:18;68599.66;;;9.65;100.00
22930;BME280;11630;42.660;23.292;2023-04-03T06:33:48;68594.77;;;9.63;100.00
22930;BME280;11630;42.660;23.292;2023-04-03T06:36:20;68632.80;;;9.93;99.85
22930;BME280;11630;42.660;23.292;2023-04-03T06:38:51;68628.22;;;9.97;100.00
22930;BME280;11630;42.660;23.292;2023-04-03T06:41:22;68626.28;;;9.92;99.28
22930;BME280;11630;42.660;23.292;2023-04-03T06:43:53;68612.69;;;9.77;98.83
22930;BME280;11630;42.660;23.292;2023-04-03T06:46:24;68644.50;;;10.00;98.34
22930;BME280;11630;42.660;23.292;2023-04-03T06:48:55;68623.03;;;9.84;97.37
22930;BME280;11630;42.660;23.292;2023-04-03T06:51:28;68625.48;;;9.90;98.13
22930;BME280;11630;42.660;23.292;2023-04-03T06:54:00;68632.53;;;9.94;98.26
22930;BME280;11630;42.660;23.292;2023-04-03T06:56:32;68646.15;;;10.04;98.03
22930;BME280;11630;42.660;23.292;2023-04-03T06:59:10;68657.03;;;10.19;96.45
22930;BME280;11630;42.660;23.292;2023-04-03T07:01:41;68692.91;;;10.47;95.54
22930;BME280;11630;42.660;23.292;2023-04-03T07:04:12;68702.45;;;10.59;94.02
22930;BME280;11630;42.660;23.292;2023-04-03T07:06:42;68718.20;;;10.71;93.57
22930;BME280;11630;42.660;23.292;2023-04-03T07:09:14;68726.91;;;10.81;92.83
22930;BME280;11630;42.660;23.292;2023-04-03T07:11:45;68720.92;;;10.73;92.05
22930;BME280;11630;42.660;23.292;2023-04-03T07:14:15;68695.92;;;10.53;93.37
22930;BME280;11630;42.660;23.292;2023-04-03T07:16:46;68671.17;;;10.29;95.03
22930;BME280;11630;42.660;23.292;2023-04-03T07:19:16;68651.88;;;10.18;94.89
22930;BME280;11630;42.660;23.292;2023-04-03T07:21:47;68688.84;;;10.47;94.26
22930;BME280;11630;42.660;23.292;2023-04-03T07:24:18;68686.13;;;10.44;94.18
22930;BME280;11630;42.660;23.292;2023-04-03T07:26:54;68702.71;;;10.61;93.86
22930;BME280;11630;42.660;23.292;2023-04-03T07:29:24;68724.75;;;10.79;93.05
22930;BME280;11630;42.660;23.292;2023-04-03T07:31:54;68745.16;;;11.02;92.66
22930;BME280;11630;42.660;23.292;2023-04-03T07:34:25;68720.66;;;10.74;93.63
22930;BME280;11630;42.660;23.292;2023-04-03T07:36:56;68784.88;;;11.36;91.07
22930;BME280;11630;42.660;23.292;2023-04-03T07:39:27;68743.80;;;10.94;91.63
22930;BME280;11630;42.660;23.292;2023-04-03T07:41:58;68720.92;;;10.73;91.95
22930;BME280;11630;42.660;23.292;2023-04-03T07:44:29;68723.39;;;10.79;92.02
22930;BME280;11630;42.660;23.292;2023-04-03T07:46:59;68675.24;;;10.37;94.22
22930;BME280;11630;42.660;23.292;2023-04-03T07:49:30;68739.98;;;10.98;92.80
22930;BME280;11630;42.660;23.292;2023-04-03T07:52:02;68768.83;;;11.20;91.90
22930;BME280;11630;42.660;23.292;2023-04-03T07:54:33;68782.16;;;11.28;91.69
22930;BME280;11630;42.660;23.292;2023-04-03T07:57:04;68827.36;;;11.72;89.08
22930;BME280;11630;42.660;23.292;2023-04-03T07:59:35;68782.70;;;11.39;88.98
22930;BME280;11630;42.660;23.292;2023-04-03T08:02:05;68741.88;;;10.96;90.53
22930;BME280;11630;42.660;23.292;2023-04-03T08:04:36;68805.59;;;11.52;89.07
22930;BME280;11630;42.660;23.292;2023-04-03T08:07:07;68791.95;;;11.42;87.85
22930;BME280;11630;42.660;23.292;2023-04-03T08:09:38;68774.00;;;11.23;87.47
22930;BME280;11630;42.660;23.292;2023-04-03T08:12:09;68847.78;;;11.87;86.61
22930;BME280;11630;42.660;23.292;2023-04-03T08:14:40;68874.48;;;12.16;85.31
22930;BME280;11630;42.660;23.292;2023-04-03T08:17:10;68829.81;;;11.78;86.42
22930;BME280;11630;42.660;23.292;2023-04-03T08:19:41;68871.48;;;12.05;86.62
22930;BME280;11630;42.660;23.292;2023-04-03T08:22:12;68877.47;;;12.20;84.30
22930;BME280;11630;42.660;23.292;2023-04-03T08:24:42;68866.86;;;12.12;84.79
22930;BME280;11630;42.660;23.292;2023-04-03T08:27:15;68897.36;;;12.34;84.56
22930;BME280;11630;42.660;23.292;2023-04-03T08:29:46;68912.06;;;12.48;84.01
22930;BME280;11630;42.660;23.292;2023-04-03T08:32:17;68904.98;;;12.41;82.68
22930;BME280;11630;42.660;23.292;2023-04-03T08:34:47;68888.35;;;12.27;84.78
22930;BME280;11630;42.660;23.292;2023-04-03T08:37:17;68949.40;;;12.81;82.38
22930;BME280;11630;42.660;23.292;2023-04-03T08:39:47;68929.78;;;12.70;82.12
22930;BME280;11630;42.660;23.292;2023-04-03T08:45:14;68953.23;;;12.89;80.79
22930;BME280;11630;42.660;23.292;2023-04-03T08:48:00;68910.69;;;12.50;82.03
22930;BME280;11630;42.660;23.292;2023-04-03T08:50:43;68964.69;;;12.92;81.08
22930;BME280;11630;42.660;23.292;2023-04-03T08:53:14;68973.41;;;13.05;80.91
22930;BME280;11630;42.660;23.292;2023-04-03T08:55:51;68992.75;;;13.21;80.11
22930;BME280;11630;42.660;23.292;2023-04-03T08:58:25;68986.48;;;13.17;80.19
22930;BME280;11630;42.660;23.292;2023-04-03T09:01:05;68974.49;;;13.06;80.48
22930;BME280;11630;42.660;23.292;2023-04-03T09:03:37;69023.84;;;13.50;79.81
22930;BME280;11630;42.660;23.292;2023-04-03T09:06:21;69036.13;;;13.60;79.52
22930;BME280;11630;42.660;23.292;2023-04-03T09:09:12;69005.83;;;13.31;81.68
22930;BME280;11630;42.660;23.292;2023-04-03T09:11:46;69041.29;;;13.68;79.72
22930;BME280;11630;42.660;23.292;2023-04-03T09:17:14;69258.61;;;15.63;100.00
22930;BME280;11630;42.660;23.292;2023-04-03T09:19:58;69225.02;;;15.29;83.68
22930;BME280;11630;42.660;23.292;2023-04-03T09:22:31;69201.78;;;15.12;83.87
22930;BME280;11630;42.660;23.292;2023-04-03T09:25:03;69215.45;;;15.27;84.46
22930;BME280;11630;42.660;23.292;2023-04-03T09:27:33;69328.56;;;16.29;87.45
22930;BME280;11630;42.660;23.292;2023-04-03T09:30:04;69418.26;;;17.08;87.37
22930;BME280;11630;42.660;23.292;2023-04-03T09:32:35;69277.18;;;15.78;71.06
22930;BME280;11630;42.660;23.292;2023-04-03T09:35:26;69380.25;;;16.73;78.14
22930;BME280;11630;42.660;23.292;2023-04-03T09:38:22;69309.73;;;16.01;73.45
22930;BME280;11630;42.660;23.292;2023-04-03T09:40:33;69350.70;;;16.53;68.43
22930;BME280;11630;42.660;23.292;2023-04-03T09:43:25;69279.64;;;15.84;65.36
22930;BME280;11630;42.660;23.292;2023-04-03T09:46:44;69311.33;;;16.15;71.26
22930;BME280;11630;42.660;23.292;2023-04-03T09:48:29;69306.16;;;16.02;66.84
22930;BME280;11630;42.660;23.292;2023-04-03T09:51:03;69307.23;;;16.08;75.23
22930;BME280;11630;42.660;23.292;2023-04-03T09:53:38;69234.02;;;15.41;63.47
22930;BME280;11630;42.660;23.292;2023-04-03T09:59:06;69190.30;;;15.04;64.97
22930;BME280;11630;42.660;23.292;2023-04-03T10:01:33;69214.91;;;15.29;63.40
22930;BME280;11630;42.660;23.292;2023-04-03T10:04:11;69200.69;;;15.08;64.21
22930;BME280;11630;42.660;23.292;2023-04-03T10:06:53;69123.15;;;14.45;66.21
22930;BME280;11630;42.660;23.292;2023-04-03T10:09:26;69153.45;;;14.69;65.52
22930;BME280;11630;42.660;23.292;2023-04-03T10:12:03;69180.75;;;14.89;64.21
22930;BME280;11630;42.660;23.292;2023-04-03T10:14:35;69129.72;;;14.41;66.18
22930;BME280;11630;42.660;23.292;2023-04-03T10:17:22;69129.70;;;14.49;65.98
22930;BME280;11630;42.660;23.292;2023-04-03T10:22:56;69076.48;;;13.96;67.46
22930;BME280;11630;42.660;23.292;2023-04-03T10:25:46;69056.84;;;13.79;67.66
22930;BME280;11630;42.660;23.292;2023-04-03T10:28:15;69104.61;;;14.18;66.53
22930;BME280;11630;42.660;23.292;2023-04-03T10:30:53;69053.56;;;13.81;70.11
22930;BME280;11630;42.660;23.292;2023-04-03T10:33:32;69077.02;;;13.99;68.50
22930;BME280;11630;42.660;23.292;2023-04-03T10:36:19;69045.94;;;13.71;69.42
22930;BME280;11630;42.660;23.292;2023-04-03T10:39:04;69051.10;;;13.82;70.36
22930;BME280;11630;42.660;23.292;2023-04-03T10:44:36;69085.20;;;14.09;69.21
22930;BME280;11630;42.660;23.292;2023-04-03T10:47:20;69086.03;;;14.04;69.84
22930;BME280;11630;42.660;23.292;2023-04-03T10:49:56;69048.66;;;13.71;70.06
22930;BME280;11630;42.660;23.292;2023-04-03T10:55:30;69079.20;;;14.01;70.50
22930;BME280;11630;42.660;23.292;2023-04-03T10:57:58;69097.22;;;14.20;68.69
22930;BME280;11630;42.660;23.292;2023-04-03T11:00:40;69092.58;;;14.07;68.79
22930;BME280;11630;42.660;23.292;2023-04-03T11:03:17;69045.39;;;13.66;70.33
22930;BME280;11630;42.660;23.292;2023-04-03T11:05:49;69009.66;;;13.42;72.69
22930;BME280;11630;42.660;23.292;2023-04-03T11:08:36;69001.20;;;13.33;75.23
22930;BME280;11630;42.660;23.292;2023-04-03T11:11:19;69010.75;;;13.33;77.63
22930;BME280;11630;42.660;23.292;2023-04-03T11:16:59;68941.21;;;12.73;82.35
22930;BME280;11630;42.660;23.292;2023-04-03T11:22:30;68960.86;;;12.96;87.90
22930;BME280;11630;42.660;23.292;2023-04-03T11:27:58;68915.89;;;12.56;91.43
22930;BME280;11630;42.660;23.292;2023-04-03T11:33:43;68906.08;;;12.47;96.43
22930;BME280;11630;42.660;23.292;2023-04-03T11:36:18;68900.91;;;12.44;100.00
22930;BME280;11630;42.660;23.292;2023-04-03T11:38:46;68873.66;;;12.12;100.00
22930;BME280;11630;42.660;23.292;2023-04-03T11:41:16;68881.55;;;12.20;100.00
22930;BME280;11630;42.660;23.292;2023-04-03T11:44:33;68900.34;;;12.38;100.00
22930;BME280;11630;42.660;23.292;2023-04-03T11:47:02;68850.50;;;11.92;100.00
22930;BME280;11630;42.660;23.292;2023-04-03T11:50:03;68827.65;;;11.76;100.00
22930;BME280;11630;42.660;23.292;2023-04-03T11:58:04;68812.67;;;11.61;100.00
22930;BME280;11630;42.660;23.292;2023-04-03T12:01:03;68800.69;;;11.52;100.00
22930;BME280;11630;42.660;23.292;2023-04-03T12:03:55;68845.33;;;11.86;100.00
22930;BME280;11630;42.660;23.292;2023-04-03T12:08:47;68786.52;;;11.37;100.00
22930;BME280;11630;42.660;23.292;2023-04-03T12:11:33;68793.84;;;11.35;100.00
22930;BME280;11630;42.660;23.292;2023-04-03T12:14:12;68785.42;;;11.34;100.00
22930;BME280;11630;42.660;23.292;2023-04-03T12:16:42;68774.53;;;11.24;100.00
22930;BME280;11630;42.660;23.292;2023-04-03T12:22:07;68752.48;;;11.02;100.00
22930;BME280;11630;42.660;23.292;2023-04-03T12:24:41;68725.55;;;10.81;100.00
22930;BME280;11630;42.660;23.292;2023-04-03T12:30:13;68716.31;;;10.71;100.00
22930;BME280;11630;42.660;23.292;2023-04-03T12:33:36;68738.07;;;10.88;100.00
22930;BME280;11630;42.660;23.292;2023-04-03T12:35:43;68707.61;;;10.63;100.00
22930;BME280;11630;42.660;23.292;2023-04-03T12:38:58;68716.31;;;10.71;100.00
22930;BME280;11630;42.660;23.292;2023-04-03T12:44:07;68706.52;;;10.62;100.00
22930;BME280;11630;42.660;23.292;2023-04-03T12:46:37;68690.20;;;10.52;100.00
22930;BME280;11630;42.660;23.292;2023-04-03T12:49:26;68675.77;;;10.30;100.00
22930;BME280;11630;42.660;23.292;2023-04-03T12:51:54;68710.06;;;10.64;100.00
22930;BME280;11630;42.660;23.292;2023-04-03T12:54:32;68724.75;;;10.79;100.00
22930;BME280;11630;42.660;23.292;2023-04-03T12:57:24;68730.98;;;10.81;100.00
22930;BME280;11630;42.660;23.292;2023-04-03T12:59:46;68738.36;;;10.94;100.00
22930;BME280;11630;42.660;23.292;2023-04-03T13:02:21;68709.23;;;10.67;100.00
22930;BME280;11630;42.660;23.292;2023-04-03T13:05:04;68685.30;;;10.45;100.00
22930;BME280;11630;42.660;23.292;2023-04-03T13:07:36;68697.81;;;10.54;100.00
22930;BME280;11630;42.660;23.292;2023-04-03T13:10:15;68694.53;;;10.48;100.00
22930;BME280;11630;42.660;23.292;2023-04-03T13:12:55;68692.65;;;10.50;100.00
22930;BME280;11630;42.660;23.292;2023-04-03T13:15:28;68691.29;;;10.50;100.00
22930;BME280;11630;42.660;23.292;2023-04-03T13:18:01;68673.33;;;10.29;100.00
22930;BME280;11630;42.660;23.292;2023-04-03T13:20:33;68692.91;;;10.49;100.00
22930;BME280;11630;42.660;23.292;2023-04-03T13:23:08;68688.84;;;10.49;100.00
22930;BME280;11630;42.660;23.292;2023-04-03T13:25:40;68700.00;;;10.61;100.00
22930;BME280;11630;42.660;23.292;2023-04-03T13:28:12;68677.69;;;10.38;100.00
22930;BME280;11630;42.660;23.292;2023-04-03T13:31:06;68673.61;;;10.30;100.00
22930;BME280;11630;42.660;23.292;2023-04-03T13:33:35;68680.67;;;10.37;100.00
22930;BME280;11630;42.660;23.292;2023-04-03T13:36:16;68650.78;;;10.12;100.00
22930;BME280;11630;42.660;23.292;2023-04-03T13:38:41;68665.73;;;10.24;100.00
22930;BME280;11630;42.660;23.292;2023-04-03T13:41:35;68652.41;;;10.16;100.00
22930;BME280;11630;42.660;23.292;2023-04-03T13:44:28;68658.92;;;10.19;100.00
22930;BME280;11630;42.660;23.292;2023-04-03T13:47:42;68646.97;;;10.06;100.00
22930;BME280;11630;42.660;23.292;2023-04-03T13:49:36;68614.34;;;9.84;100.00
22930;BME280;11630;42.660;23.292;2023-04-03T13:52:33;68643.97;;;10.04;100.00
22930;BME280;11630;42.660;23.292;2023-04-03T13:55:23;68644.26;;;10.06;100.00
22930;BME280;11630;42.660;23.292;2023-04-03T13:57:57;68631.20;;;9.99;100.00
22930;BME280;11630;42.660;23.292;2023-04-03T14:00:36;68622.22;;;9.90;100.00
22930;BME280;11630;42.660;23.292;2023-04-03T14:03:18;68631.18;;;9.96;100.00
22930;BME280;11630;42.660;23.292;2023-04-03T14:05:48;68622.77;;;9.90;100.00
22930;BME280;11630;42.660;23.292;2023-04-03T14:08:18;68606.72;;;9.69;100.00
22930;BME280;11630;42.660;23.292;2023-04-03T14:10:50;68620.29;;;9.79;100.00
22930;BME280;11630;42.660;23.292;2023-04-03T14:13:21;68619.50;;;9.85;100.00
22930;BME280;11630;42.660;23.292;2023-04-03T14:15:51;68598.30;;;9.65;100.00